sensor_id;sensor_type;location;lat;lon;timestamp;temperature;humidity
46898;DHT22;32646;50.958;6.258;2024-02-14T00:00:43;9.10;52.60
46898;DHT22;32646;50.958;6.258;2024-02-14T00:03:10;9.10;52.80
46898;DHT22;32646;50.958;6.258;2024-02-14T00:05:36;9.10;53.30
46898;DHT22;32646;50.958;6.258;2024-02-14T00:08:03;9.10;53.30
46898;DHT22;32646;50.958;6.258;2024-02-14T00:10:30;9.10;53.60
46898;DHT22;32646;50.958;6.258;2024-02-14T00:12:57;9.20;52.60
46898;DHT22;32646;50.958;6.258;2024-02-14T00:15:23;9.20;53.50
46898;DHT22;32646;50.958;6.258;2024-02-14T00:17:50;9.20;54.00
46898;DHT22;32646;50.958;6.258;2024-02-14T00:20:16;9.20;53.70
46898;DHT22;32646;50.958;6.258;2024-02-14T00:22:43;9.30;54.20
46898;DHT22;32646;50.958;6.258;2024-02-14T00:25:10;9.20;54.90
46898;DHT22;32646;50.958;6.258;2024-02-14T00:27:37;9.30;55.40
46898;DHT22;32646;50.958;6.258;2024-02-14T00:30:04;9.30;55.70
46898;DHT22;32646;50.958;6.258;2024-02-14T00:32:31;9.30;55.90
46898;DHT22;32646;50.958;6.258;2024-02-14T00:34:58;9.30;56.80
46898;DHT22;32646;50.958;6.258;2024-02-14T00:37:24;9.30;56.80
46898;DHT22;32646;50.958;6.258;2024-02-14T00:39:51;9.30;58.50
46898;DHT22;32646;50.958;6.258;2024-02-14T00:42:18;9.30;60.10
46898;DHT22;32646;50.958;6.258;2024-02-14T00:44:44;9.30;61.90
46898;DHT22;32646;50.958;6.258;2024-02-14T00:47:11;9.30;64.60
46898;DHT22;32646;50.958;6.258;2024-02-14T00:49:38;9.20;67.90
46898;DHT22;32646;50.958;6.258;2024-02-14T00:52:04;9.20;68.10
46898;DHT22;32646;50.958;6.258;2024-02-14T00:54:31;9.20;66.10
46898;DHT22;32646;50.958;6.258;2024-02-14T00:56:57;9.20;66.70
46898;DHT22;32646;50.958;6.258;2024-02-14T00:59:24;9.20;67.90
46898;DHT22;32646;50.958;6.258;2024-02-14T01:01:51;9.20;69.50
46898;DHT22;32646;50.958;6.258;2024-02-14T01:04:17;9.10;72.10
46898;DHT22;32646;50.958;6.258;2024-02-14T01:06:44;9.20;72.60
46898;DHT22;32646;50.958;6.258;2024-02-14T01:09:12;9.20;72.60
46898;DHT22;32646;50.958;6.258;2024-02-14T01:11:39;9.20;72.20
46898;DHT22;32646;50.958;6.258;2024-02-14T01:14:05;9.20;72.60
46898;DHT22;32646;50.958;6.258;2024-02-14T01:16:32;9.20;71.90
46898;DHT22;32646;50.958;6.258;2024-02-14T01:18:58;9.30;71.80
46898;DHT22;32646;50.958;6.258;2024-02-14T01:21:25;9.30;71.70
46898;DHT22;32646;50.958;6.258;2024-02-14T01:23:52;9.30;69.50
46898;DHT22;32646;50.958;6.258;2024-02-14T01:26:20;9.40;68.50
46898;DHT22;32646;50.958;6.258;2024-02-14T01:28:46;9.40;67.50
46898;DHT22;32646;50.958;6.258;2024-02-14T01:31:13;9.40;67.00
46898;DHT22;32646;50.958;6.258;2024-02-14T01:33:39;9.50;67.00
46898;DHT22;32646;50.958;6.258;2024-02-14T01:36:06;9.40;67.20
46898;DHT22;32646;50.958;6.258;2024-02-14T01:38:33;9.50;66.80
46898;DHT22;32646;50.958;6.258;2024-02-14T01:40:59;9.50;66.70
46898;DHT22;32646;50.958;6.258;2024-02-14T01:43:26;9.50;67.20
46898;DHT22;32646;50.958;6.258;2024-02-14T01:45:53;9.50;67.90
46898;DHT22;32646;50.958;6.258;2024-02-14T01:48:19;9.50;67.40
46898;DHT22;32646;50.958;6.258;2024-02-14T01:50:46;9.50;67.40
46898;DHT22;32646;50.958;6.258;2024-02-14T01:53:13;9.50;68.00
46898;DHT22;32646;50.958;6.258;2024-02-14T01:55:40;9.50;68.60
46898;DHT22;32646;50.958;6.258;2024-02-14T01:58:07;9.50;68.10
46898;DHT22;32646;50.958;6.258;2024-02-14T02:00:34;9.60;68.50
46898;DHT22;32646;50.958;6.258;2024-02-14T02:03:01;9.60;68.70
46898;DHT22;32646;50.958;6.258;2024-02-14T02:05:27;9.50;70.60
46898;DHT22;32646;50.958;6.258;2024-02-14T02:07:54;9.60;69.80
46898;DHT22;32646;50.958;6.258;2024-02-14T02:10:21;9.50;70.60
46898;DHT22;32646;50.958;6.258;2024-02-14T02:12:48;9.60;71.20
46898;DHT22;32646;50.958;6.258;2024-02-14T02:15:15;9.50;72.70
46898;DHT22;32646;50.958;6.258;2024-02-14T02:17:42;9.50;73.90
46898;DHT22;32646;50.958;6.258;2024-02-14T02:20:09;9.50;76.00
46898;DHT22;32646;50.958;6.258;2024-02-14T02:22:36;9.50;77.60
46898;DHT22;32646;50.958;6.258;2024-02-14T02:25:05;9.50;77.20
46898;DHT22;32646;50.958;6.258;2024-02-14T02:27:33;9.50;78.10
46898;DHT22;32646;50.958;6.258;2024-02-14T02:30:00;9.60;77.20
46898;DHT22;32646;50.958;6.258;2024-02-14T02:32:27;9.60;76.70
46898;DHT22;32646;50.958;6.258;2024-02-14T02:34:53;9.60;76.40
46898;DHT22;32646;50.958;6.258;2024-02-14T02:37:20;9.60;77.30
46898;DHT22;32646;50.958;6.258;2024-02-14T02:39:47;9.60;76.40
46898;DHT22;32646;50.958;6.258;2024-02-14T02:42:13;9.60;76.00
46898;DHT22;32646;50.958;6.258;2024-02-14T02:44:40;9.60;75.90
46898;DHT22;32646;50.958;6.258;2024-02-14T02:47:07;9.60;76.50
46898;DHT22;32646;50.958;6.258;2024-02-14T02:49:33;9.60;77.10
46898;DHT22;32646;50.958;6.258;2024-02-14T02:52:02;9.60;77.20
46898;DHT22;32646;50.958;6.258;2024-02-14T02:54:29;9.70;76.50
46898;DHT22;32646;50.958;6.258;2024-02-14T02:56:55;9.60;77.30
46898;DHT22;32646;50.958;6.258;2024-02-14T02:59:22;9.60;79.80
46898;DHT22;32646;50.958;6.258;2024-02-14T03:01:49;9.60;80.30
46898;DHT22;32646;50.958;6.258;2024-02-14T03:04:15;9.60;81.50
46898;DHT22;32646;50.958;6.258;2024-02-14T03:06:42;9.50;82.00
46898;DHT22;32646;50.958;6.258;2024-02-14T03:09:09;9.50;83.50
46898;DHT22;32646;50.958;6.258;2024-02-14T03:11:36;9.50;83.60
46898;DHT22;32646;50.958;6.258;2024-02-14T03:14:02;9.50;87.10
46898;DHT22;32646;50.958;6.258;2024-02-14T03:16:29;9.30;93.20
46898;DHT22;32646;50.958;6.258;2024-02-14T03:18:56;9.20;98.10
46898;DHT22;32646;50.958;6.258;2024-02-14T03:21:22;9.10;99.90
46898;DHT22;32646;50.958;6.258;2024-02-14T03:23:49;9.10;99.90
46898;DHT22;32646;50.958;6.258;2024-02-14T03:26:16;9.00;99.90
46898;DHT22;32646;50.958;6.258;2024-02-14T03:28:42;9.00;99.90
46898;DHT22;32646;50.958;6.258;2024-02-14T03:31:09;9.00;99.90
46898;DHT22;32646;50.958;6.258;2024-02-14T03:33:36;9.00;99.90
46898;DHT22;32646;50.958;6.258;2024-02-14T03:36:03;9.00;99.90
46898;DHT22;32646;50.958;6.258;2024-02-14T03:38:29;9.10;99.90
46898;DHT22;32646;50.958;6.258;2024-02-14T03:40:56;9.10;99.90
46898;DHT22;32646;50.958;6.258;2024-02-14T03:43:23;9.10;99.90
46898;DHT22;32646;50.958;6.258;2024-02-14T03:45:49;9.10;99.90
46898;DHT22;32646;50.958;6.258;2024-02-14T03:48:16;9.10;99.90
46898;DHT22;32646;50.958;6.258;2024-02-14T03:50:43;9.10;99.90
46898;DHT22;32646;50.958;6.258;2024-02-14T03:53:10;9.10;99.90
46898;DHT22;32646;50.958;6.258;2024-02-14T03:55:37;9.20;99.90
46898;DHT22;32646;50.958;6.258;2024-02-14T03:58:04;9.20;99.90
46898;DHT22;32646;50.958;6.258;2024-02-14T04:00:30;9.10;99.90
46898;DHT22;32646;50.958;6.258;2024-02-14T04:02:57;9.20;99.90
46898;DHT22;32646;50.958;6.258;2024-02-14T04:05:24;9.20;99.90
46898;DHT22;32646;50.958;6.258;2024-02-14T04:07:51;9.20;99.50
46898;DHT22;32646;50.958;6.258;2024-02-14T04:10:17;9.30;99.10
46898;DHT22;32646;50.958;6.258;2024-02-14T04:12:44;9.30;98.10
46898;DHT22;32646;50.958;6.258;2024-02-14T04:15:11;9.30;98.10
46898;DHT22;32646;50.958;6.258;2024-02-14T04:17:39;9.30;97.80
46898;DHT22;32646;50.958;6.258;2024-02-14T04:20:06;9.30;98.40
46898;DHT22;32646;50.958;6.258;2024-02-14T04:22:33;9.30;98.20
46898;DHT22;32646;50.958;6.258;2024-02-14T04:25:00;9.30;98.00
46898;DHT22;32646;50.958;6.258;2024-02-14T04:27:27;9.30;97.60
46898;DHT22;32646;50.958;6.258;2024-02-14T04:29:54;9.30;98.30
46898;DHT22;32646;50.958;6.258;2024-02-14T04:32:21;9.30;98.80
46898;DHT22;32646;50.958;6.258;2024-02-14T04:34:47;9.30;99.50
46898;DHT22;32646;50.958;6.258;2024-02-14T04:37:14;9.40;98.60
46898;DHT22;32646;50.958;6.258;2024-02-14T04:39:41;9.40;98.50
46898;DHT22;32646;50.958;6.258;2024-02-14T04:42:07;9.40;98.50
46898;DHT22;32646;50.958;6.258;2024-02-14T04:44:34;9.40;98.30
46898;DHT22;32646;50.958;6.258;2024-02-14T04:47:01;9.40;98.30
46898;DHT22;32646;50.958;6.258;2024-02-14T04:49:28;9.40;98.80
46898;DHT22;32646;50.958;6.258;2024-02-14T04:51:55;9.50;98.10
46898;DHT22;32646;50.958;6.258;2024-02-14T04:54:21;9.40;99.70
46898;DHT22;32646;50.958;6.258;2024-02-14T04:56:48;9.40;99.90
46898;DHT22;32646;50.958;6.258;2024-02-14T04:59:21;9.30;99.90
46898;DHT22;32646;50.958;6.258;2024-02-14T05:01:48;9.30;99.90
46898;DHT22;32646;50.958;6.258;2024-02-14T05:04:14;9.20;99.90
46898;DHT22;32646;50.958;6.258;2024-02-14T05:06:41;9.20;99.90
46898;DHT22;32646;50.958;6.258;2024-02-14T05:09:08;9.20;99.90
46898;DHT22;32646;50.958;6.258;2024-02-14T05:11:35;9.10;99.90
46898;DHT22;32646;50.958;6.258;2024-02-14T05:14:01;9.10;99.90
46898;DHT22;32646;50.958;6.258;2024-02-14T05:16:28;9.00;99.90
46898;DHT22;32646;50.958;6.258;2024-02-14T05:18:54;9.00;99.90
46898;DHT22;32646;50.958;6.258;2024-02-14T05:21:21;9.00;99.90
46898;DHT22;32646;50.958;6.258;2024-02-14T05:23:48;9.00;99.90
46898;DHT22;32646;50.958;6.258;2024-02-14T05:26:15;9.00;99.90
46898;DHT22;32646;50.958;6.258;2024-02-14T05:28:41;9.00;99.90
46898;DHT22;32646;50.958;6.258;2024-02-14T05:31:08;9.00;99.90
46898;DHT22;32646;50.958;6.258;2024-02-14T05:33:34;9.00;99.90
46898;DHT22;32646;50.958;6.258;2024-02-14T05:36:01;9.00;99.90
46898;DHT22;32646;50.958;6.258;2024-02-14T05:38:28;9.00;99.90
46898;DHT22;32646;50.958;6.258;2024-02-14T05:40:55;9.00;99.90
46898;DHT22;32646;50.958;6.258;2024-02-14T05:43:22;9.10;99.90
46898;DHT22;32646;50.958;6.258;2024-02-14T05:45:49;9.10;99.90
46898;DHT22;32646;50.958;6.258;2024-02-14T05:48:15;9.10;99.90
46898;DHT22;32646;50.958;6.258;2024-02-14T05:50:42;9.10;99.90
46898;DHT22;32646;50.958;6.258;2024-02-14T05:53:09;9.10;99.90
46898;DHT22;32646;50.958;6.258;2024-02-14T05:55:35;9.10;99.90
46898;DHT22;32646;50.958;6.258;2024-02-14T05:58:02;9.00;99.90
46898;DHT22;32646;50.958;6.258;2024-02-14T06:00:28;9.00;99.90
46898;DHT22;32646;50.958;6.258;2024-02-14T06:02:56;9.00;99.90
46898;DHT22;32646;50.958;6.258;2024-02-14T06:05:22;9.00;99.90
46898;DHT22;32646;50.958;6.258;2024-02-14T06:07:49;9.00;99.90
46898;DHT22;32646;50.958;6.258;2024-02-14T06:10:16;9.10;99.90
46898;DHT22;32646;50.958;6.258;2024-02-14T06:12:43;9.10;99.90
46898;DHT22;32646;50.958;6.258;2024-02-14T06:15:09;9.10;99.90
46898;DHT22;32646;50.958;6.258;2024-02-14T06:17:36;9.10;99.90
46898;DHT22;32646;50.958;6.258;2024-02-14T06:20:03;9.20;99.90
46898;DHT22;32646;50.958;6.258;2024-02-14T06:22:30;9.20;99.90
46898;DHT22;32646;50.958;6.258;2024-02-14T06:24:57;9.20;99.90
46898;DHT22;32646;50.958;6.258;2024-02-14T06:27:23;9.20;99.90
46898;DHT22;32646;50.958;6.258;2024-02-14T06:29:50;9.30;99.90
46898;DHT22;32646;50.958;6.258;2024-02-14T06:32:16;9.20;99.90
46898;DHT22;32646;50.958;6.258;2024-02-14T06:34:43;9.30;99.90
46898;DHT22;32646;50.958;6.258;2024-02-14T06:37:10;9.30;99.90
46898;DHT22;32646;50.958;6.258;2024-02-14T06:39:36;9.30;99.90
46898;DHT22;32646;50.958;6.258;2024-02-14T06:42:03;9.30;99.90
46898;DHT22;32646;50.958;6.258;2024-02-14T06:44:30;9.40;99.90
46898;DHT22;32646;50.958;6.258;2024-02-14T06:46:59;9.40;99.90
46898;DHT22;32646;50.958;6.258;2024-02-14T06:49:25;9.50;99.90
46898;DHT22;32646;50.958;6.258;2024-02-14T06:51:52;9.60;99.90
46898;DHT22;32646;50.958;6.258;2024-02-14T06:54:18;9.50;99.90
46898;DHT22;32646;50.958;6.258;2024-02-14T06:56:45;9.60;99.90
46898;DHT22;32646;50.958;6.258;2024-02-14T06:59:12;9.60;99.90
46898;DHT22;32646;50.958;6.258;2024-02-14T07:01:41;9.60;99.90
46898;DHT22;32646;50.958;6.258;2024-02-14T07:04:07;9.60;99.90
46898;DHT22;32646;50.958;6.258;2024-02-14T07:06:34;9.70;99.90
46898;DHT22;32646;50.958;6.258;2024-02-14T07:09:01;9.70;99.90
46898;DHT22;32646;50.958;6.258;2024-02-14T07:11:27;9.80;99.90
46898;DHT22;32646;50.958;6.258;2024-02-14T07:13:55;9.70;99.90
46898;DHT22;32646;50.958;6.258;2024-02-14T07:16:22;9.70;99.90
46898;DHT22;32646;50.958;6.258;2024-02-14T07:18:49;9.60;99.90
46898;DHT22;32646;50.958;6.258;2024-02-14T07:21:16;9.60;99.90
46898;DHT22;32646;50.958;6.258;2024-02-14T07:23:43;9.70;99.90
46898;DHT22;32646;50.958;6.258;2024-02-14T07:26:09;9.60;99.90
46898;DHT22;32646;50.958;6.258;2024-02-14T07:28:36;9.70;99.90
46898;DHT22;32646;50.958;6.258;2024-02-14T07:31:03;9.70;99.90
46898;DHT22;32646;50.958;6.258;2024-02-14T07:33:30;9.70;99.90
46898;DHT22;32646;50.958;6.258;2024-02-14T07:35:57;9.80;99.90
46898;DHT22;32646;50.958;6.258;2024-02-14T07:38:24;9.80;99.90
46898;DHT22;32646;50.958;6.258;2024-02-14T07:40:52;9.80;99.90
46898;DHT22;32646;50.958;6.258;2024-02-14T07:43:18;9.90;99.90
46898;DHT22;32646;50.958;6.258;2024-02-14T07:45:45;10.00;99.90
46898;DHT22;32646;50.958;6.258;2024-02-14T07:48:12;10.10;99.90
46898;DHT22;32646;50.958;6.258;2024-02-14T07:50:38;10.00;99.90
46898;DHT22;32646;50.958;6.258;2024-02-14T07:53:05;10.00;99.90
46898;DHT22;32646;50.958;6.258;2024-02-14T07:55:32;10.10;99.90
46898;DHT22;32646;50.958;6.258;2024-02-14T07:57:58;10.20;99.90
46898;DHT22;32646;50.958;6.258;2024-02-14T08:00:25;10.20;99.90
46898;DHT22;32646;50.958;6.258;2024-02-14T08:02:52;10.30;99.90
46898;DHT22;32646;50.958;6.258;2024-02-14T08:05:18;10.30;98.80
46898;DHT22;32646;50.958;6.258;2024-02-14T08:07:45;10.30;98.50
46898;DHT22;32646;50.958;6.258;2024-02-14T08:10:12;10.30;98.20
46898;DHT22;32646;50.958;6.258;2024-02-14T08:12:39;10.30;98.30
46898;DHT22;32646;50.958;6.258;2024-02-14T08:15:05;10.40;97.20
46898;DHT22;32646;50.958;6.258;2024-02-14T08:17:32;10.50;96.20
46898;DHT22;32646;50.958;6.258;2024-02-14T08:19:59;10.60;94.50
46898;DHT22;32646;50.958;6.258;2024-02-14T08:22:26;10.50;95.60
46898;DHT22;32646;50.958;6.258;2024-02-14T08:24:53;10.60;94.60
46898;DHT22;32646;50.958;6.258;2024-02-14T08:27:19;10.60;94.10
46898;DHT22;32646;50.958;6.258;2024-02-14T08:29:46;10.60;93.20
46898;DHT22;32646;50.958;6.258;2024-02-14T08:32:13;10.70;92.90
46898;DHT22;32646;50.958;6.258;2024-02-14T08:34:39;10.70;92.00
46898;DHT22;32646;50.958;6.258;2024-02-14T08:37:06;10.70;92.50
46898;DHT22;32646;50.958;6.258;2024-02-14T08:39:33;10.80;91.10
46898;DHT22;32646;50.958;6.258;2024-02-14T08:41:59;10.90;88.80
46898;DHT22;32646;50.958;6.258;2024-02-14T08:44:26;11.00;87.40
46898;DHT22;32646;50.958;6.258;2024-02-14T08:46:52;11.10;85.60
46898;DHT22;32646;50.958;6.258;2024-02-14T08:49:19;11.10;85.00
46898;DHT22;32646;50.958;6.258;2024-02-14T08:51:46;11.20;84.30
46898;DHT22;32646;50.958;6.258;2024-02-14T08:54:13;11.20;84.00
46898;DHT22;32646;50.958;6.258;2024-02-14T08:56:42;11.30;83.10
46898;DHT22;32646;50.958;6.258;2024-02-14T08:59:09;11.50;79.90
46898;DHT22;32646;50.958;6.258;2024-02-14T09:01:36;11.60;77.50
46898;DHT22;32646;50.958;6.258;2024-02-14T09:04:03;11.80;74.30
46898;DHT22;32646;50.958;6.258;2024-02-14T09:06:29;11.80;68.50
46898;DHT22;32646;50.958;6.258;2024-02-14T09:08:56;12.00;67.70
46898;DHT22;32646;50.958;6.258;2024-02-14T09:11:25;12.10;65.50
46898;DHT22;32646;50.958;6.258;2024-02-14T09:13:51;12.20;63.30
46898;DHT22;32646;50.958;6.258;2024-02-14T09:16:18;12.50;60.30
46898;DHT22;32646;50.958;6.258;2024-02-14T09:18:45;12.60;58.80
46898;DHT22;32646;50.958;6.258;2024-02-14T09:21:12;12.70;57.70
46898;DHT22;32646;50.958;6.258;2024-02-14T09:23:43;12.90;54.20
46898;DHT22;32646;50.958;6.258;2024-02-14T09:26:10;12.80;55.70
46898;DHT22;32646;50.958;6.258;2024-02-14T09:28:40;12.60;55.70
46898;DHT22;32646;50.958;6.258;2024-02-14T09:31:08;12.50;58.90
46898;DHT22;32646;50.958;6.258;2024-02-14T09:33:34;12.40;58.60
46898;DHT22;32646;50.958;6.258;2024-02-14T09:36:01;12.40;59.70
46898;DHT22;32646;50.958;6.258;2024-02-14T09:38:28;12.30;63.00
46898;DHT22;32646;50.958;6.258;2024-02-14T09:41:00;12.20;61.60
46898;DHT22;32646;50.958;6.258;2024-02-14T09:43:34;12.20;62.90
46898;DHT22;32646;50.958;6.258;2024-02-14T09:46:02;12.10;64.90
46898;DHT22;32646;50.958;6.258;2024-02-14T09:48:30;12.00;66.30
46898;DHT22;32646;50.958;6.258;2024-02-14T09:50:57;12.10;67.50
46898;DHT22;32646;50.958;6.258;2024-02-14T09:53:24;12.10;69.50
46898;DHT22;32646;50.958;6.258;2024-02-14T09:55:50;12.10;68.30
46898;DHT22;32646;50.958;6.258;2024-02-14T09:58:17;12.10;68.70
46898;DHT22;32646;50.958;6.258;2024-02-14T10:00:44;12.10;67.20
46898;DHT22;32646;50.958;6.258;2024-02-14T10:03:11;12.20;69.00
46898;DHT22;32646;50.958;6.258;2024-02-14T10:05:37;12.10;72.30
46898;DHT22;32646;50.958;6.258;2024-02-14T10:08:05;12.00;75.70
46898;DHT22;32646;50.958;6.258;2024-02-14T10:10:32;12.00;75.40
46898;DHT22;32646;50.958;6.258;2024-02-14T10:12:59;12.00;76.50
46898;DHT22;32646;50.958;6.258;2024-02-14T10:15:25;12.00;76.80
46898;DHT22;32646;50.958;6.258;2024-02-14T10:17:52;12.00;75.80
46898;DHT22;32646;50.958;6.258;2024-02-14T10:20:19;11.90;76.00
46898;DHT22;32646;50.958;6.258;2024-02-14T10:22:45;11.90;79.50
46898;DHT22;32646;50.958;6.258;2024-02-14T10:25:12;11.90;86.20
46898;DHT22;32646;50.958;6.258;2024-02-14T10:27:39;11.90;88.00
46898;DHT22;32646;50.958;6.258;2024-02-14T10:30:06;11.80;90.30
46898;DHT22;32646;50.958;6.258;2024-02-14T10:32:33;11.80;88.20
46898;DHT22;32646;50.958;6.258;2024-02-14T10:35:00;12.00;85.90
46898;DHT22;32646;50.958;6.258;2024-02-14T10:37:29;12.00;82.10
46898;DHT22;32646;50.958;6.258;2024-02-14T10:39:56;12.10;81.90
46898;DHT22;32646;50.958;6.258;2024-02-14T10:42:25;12.20;80.70
46898;DHT22;32646;50.958;6.258;2024-02-14T10:44:52;12.30;77.30
46898;DHT22;32646;50.958;6.258;2024-02-14T10:47:20;12.30;77.10
46898;DHT22;32646;50.958;6.258;2024-02-14T10:49:51;12.40;75.50
46898;DHT22;32646;50.958;6.258;2024-02-14T10:52:19;12.40;78.40
46898;DHT22;32646;50.958;6.258;2024-02-14T10:54:52;12.50;74.50
46898;DHT22;32646;50.958;6.258;2024-02-14T10:57:21;12.60;72.20
46898;DHT22;32646;50.958;6.258;2024-02-14T10:59:51;12.70;68.10
46898;DHT22;32646;50.958;6.258;2024-02-14T11:02:19;13.00;67.50
46898;DHT22;32646;50.958;6.258;2024-02-14T11:04:49;13.30;63.10
46898;DHT22;32646;50.958;6.258;2024-02-14T11:07:17;13.20;62.80
46898;DHT22;32646;50.958;6.258;2024-02-14T11:09:43;12.90;64.10
46898;DHT22;32646;50.958;6.258;2024-02-14T11:12:10;12.80;67.10
46898;DHT22;32646;50.958;6.258;2024-02-14T11:14:37;12.70;68.50
46898;DHT22;32646;50.958;6.258;2024-02-14T11:17:08;12.70;68.90
46898;DHT22;32646;50.958;6.258;2024-02-14T11:19:35;12.60;69.60
46898;DHT22;32646;50.958;6.258;2024-02-14T11:22:19;12.70;70.80
46898;DHT22;32646;50.958;6.258;2024-02-14T11:24:47;12.70;68.60
46898;DHT22;32646;50.958;6.258;2024-02-14T11:27:14;12.80;70.50
46898;DHT22;32646;50.958;6.258;2024-02-14T11:30:00;12.70;68.30
46898;DHT22;32646;50.958;6.258;2024-02-14T11:32:27;12.80;69.20
46898;DHT22;32646;50.958;6.258;2024-02-14T11:34:54;12.70;71.80
46898;DHT22;32646;50.958;6.258;2024-02-14T11:37:27;12.80;73.20
46898;DHT22;32646;50.958;6.258;2024-02-14T11:39:54;12.80;71.90
46898;DHT22;32646;50.958;6.258;2024-02-14T11:42:21;12.80;72.90
46898;DHT22;32646;50.958;6.258;2024-02-14T11:44:51;12.70;71.70
46898;DHT22;32646;50.958;6.258;2024-02-14T11:47:18;12.60;72.70
46898;DHT22;32646;50.958;6.258;2024-02-14T11:49:44;12.60;72.90
46898;DHT22;32646;50.958;6.258;2024-02-14T11:52:11;12.70;74.90
46898;DHT22;32646;50.958;6.258;2024-02-14T11:54:38;12.80;71.20
46898;DHT22;32646;50.958;6.258;2024-02-14T11:57:05;12.80;72.00
46898;DHT22;32646;50.958;6.258;2024-02-14T11:59:32;12.80;72.80
46898;DHT22;32646;50.958;6.258;2024-02-14T12:01:59;12.80;80.00
46898;DHT22;32646;50.958;6.258;2024-02-14T12:04:26;12.70;81.10
46898;DHT22;32646;50.958;6.258;2024-02-14T12:06:53;12.70;75.80
46898;DHT22;32646;50.958;6.258;2024-02-14T12:09:21;12.80;78.90
46898;DHT22;32646;50.958;6.258;2024-02-14T12:11:47;12.80;73.70
46898;DHT22;32646;50.958;6.258;2024-02-14T12:14:15;12.90;75.30
46898;DHT22;32646;50.958;6.258;2024-02-14T12:16:42;13.00;72.40
46898;DHT22;32646;50.958;6.258;2024-02-14T12:19:15;13.00;73.40
46898;DHT22;32646;50.958;6.258;2024-02-14T12:21:44;12.90;74.20
46898;DHT22;32646;50.958;6.258;2024-02-14T12:24:11;12.80;78.10
46898;DHT22;32646;50.958;6.258;2024-02-14T12:26:38;12.80;76.30
46898;DHT22;32646;50.958;6.258;2024-02-14T12:29:06;12.80;81.10
46898;DHT22;32646;50.958;6.258;2024-02-14T12:31:34;12.70;83.80
46898;DHT22;32646;50.958;6.258;2024-02-14T12:34:02;12.60;88.30
46898;DHT22;32646;50.958;6.258;2024-02-14T12:36:30;12.60;88.40
46898;DHT22;32646;50.958;6.258;2024-02-14T12:38:57;12.60;91.50
46898;DHT22;32646;50.958;6.258;2024-02-14T12:41:23;12.80;92.30
46898;DHT22;32646;50.958;6.258;2024-02-14T12:43:50;12.80;91.10
46898;DHT22;32646;50.958;6.258;2024-02-14T12:46:17;12.70;89.50
46898;DHT22;32646;50.958;6.258;2024-02-14T12:48:43;12.70;88.00
46898;DHT22;32646;50.958;6.258;2024-02-14T12:51:10;12.70;92.10
46898;DHT22;32646;50.958;6.258;2024-02-14T12:53:39;12.70;91.40
46898;DHT22;32646;50.958;6.258;2024-02-14T12:56:07;12.70;90.30
46898;DHT22;32646;50.958;6.258;2024-02-14T12:58:34;12.60;90.30
46898;DHT22;32646;50.958;6.258;2024-02-14T13:01:01;12.60;90.00
46898;DHT22;32646;50.958;6.258;2024-02-14T13:03:27;12.60;90.40
46898;DHT22;32646;50.958;6.258;2024-02-14T13:05:54;12.50;92.80
46898;DHT22;32646;50.958;6.258;2024-02-14T13:08:21;12.50;95.40
46898;DHT22;32646;50.958;6.258;2024-02-14T13:10:47;12.50;95.30
46898;DHT22;32646;50.958;6.258;2024-02-14T13:13:14;12.50;95.20
46898;DHT22;32646;50.958;6.258;2024-02-14T13:15:41;12.60;93.80
46898;DHT22;32646;50.958;6.258;2024-02-14T13:18:08;12.60;95.60
46898;DHT22;32646;50.958;6.258;2024-02-14T13:20:34;12.40;98.50
46898;DHT22;32646;50.958;6.258;2024-02-14T13:23:01;12.10;99.90
46898;DHT22;32646;50.958;6.258;2024-02-14T13:25:28;11.80;99.90
46898;DHT22;32646;50.958;6.258;2024-02-14T13:27:54;11.60;99.90
46898;DHT22;32646;50.958;6.258;2024-02-14T13:30:21;11.50;99.90
46898;DHT22;32646;50.958;6.258;2024-02-14T13:32:48;11.50;99.90
46898;DHT22;32646;50.958;6.258;2024-02-14T13:35:15;11.40;99.90
46898;DHT22;32646;50.958;6.258;2024-02-14T13:37:41;11.40;99.90
46898;DHT22;32646;50.958;6.258;2024-02-14T13:40:08;11.40;99.90
46898;DHT22;32646;50.958;6.258;2024-02-14T13:42:36;11.40;99.90
46898;DHT22;32646;50.958;6.258;2024-02-14T13:45:04;11.30;99.90
46898;DHT22;32646;50.958;6.258;2024-02-14T13:47:31;11.30;99.90
46898;DHT22;32646;50.958;6.258;2024-02-14T13:49:57;11.30;99.90
46898;DHT22;32646;50.958;6.258;2024-02-14T13:52:24;11.20;99.90
46898;DHT22;32646;50.958;6.258;2024-02-14T13:54:51;11.30;99.90
46898;DHT22;32646;50.958;6.258;2024-02-14T13:57:17;11.20;99.90
46898;DHT22;32646;50.958;6.258;2024-02-14T13:59:46;11.20;99.90
46898;DHT22;32646;50.958;6.258;2024-02-14T14:02:13;11.30;99.90
46898;DHT22;32646;50.958;6.258;2024-02-14T14:04:39;11.30;99.90
46898;DHT22;32646;50.958;6.258;2024-02-14T14:07:06;11.30;99.90
46898;DHT22;32646;50.958;6.258;2024-02-14T14:09:33;11.30;99.90
46898;DHT22;32646;50.958;6.258;2024-02-14T14:11:59;11.30;99.90
46898;DHT22;32646;50.958;6.258;2024-02-14T14:14:26;11.40;99.90
46898;DHT22;32646;50.958;6.258;2024-02-14T14:16:53;11.40;99.90
46898;DHT22;32646;50.958;6.258;2024-02-14T14:19:20;11.40;99.90
46898;DHT22;32646;50.958;6.258;2024-02-14T14:21:46;11.50;99.90
46898;DHT22;32646;50.958;6.258;2024-02-14T14:24:13;11.40;99.90
46898;DHT22;32646;50.958;6.258;2024-02-14T14:26:40;11.40;99.90
46898;DHT22;32646;50.958;6.258;2024-02-14T14:29:06;11.40;99.90
46898;DHT22;32646;50.958;6.258;2024-02-14T14:31:33;11.40;99.90
46898;DHT22;32646;50.958;6.258;2024-02-14T14:33:59;11.40;99.90
46898;DHT22;32646;50.958;6.258;2024-02-14T14:36:26;11.40;99.90
46898;DHT22;32646;50.958;6.258;2024-02-14T14:38:53;11.40;99.90
46898;DHT22;32646;50.958;6.258;2024-02-14T14:41:20;11.40;99.90
46898;DHT22;32646;50.958;6.258;2024-02-14T14:43:46;11.40;99.90
46898;DHT22;32646;50.958;6.258;2024-02-14T14:46:13;11.40;99.90
46898;DHT22;32646;50.958;6.258;2024-02-14T14:48:40;11.40;99.90
46898;DHT22;32646;50.958;6.258;2024-02-14T14:51:06;11.50;99.90
46898;DHT22;32646;50.958;6.258;2024-02-14T14:53:33;11.50;99.90
46898;DHT22;32646;50.958;6.258;2024-02-14T14:56:00;11.50;99.90
46898;DHT22;32646;50.958;6.258;2024-02-14T14:58:27;11.50;99.90
46898;DHT22;32646;50.958;6.258;2024-02-14T15:00:55;11.50;99.90
46898;DHT22;32646;50.958;6.258;2024-02-14T15:03:22;11.50;99.90
46898;DHT22;32646;50.958;6.258;2024-02-14T15:05:49;11.50;99.90
46898;DHT22;32646;50.958;6.258;2024-02-14T15:08:16;11.50;99.90
46898;DHT22;32646;50.958;6.258;2024-02-14T15:10:43;11.60;99.90
46898;DHT22;32646;50.958;6.258;2024-02-14T15:13:10;11.60;99.90
46898;DHT22;32646;50.958;6.258;2024-02-14T15:15:36;11.60;99.90
46898;DHT22;32646;50.958;6.258;2024-02-14T15:18:03;11.60;99.90
46898;DHT22;32646;50.958;6.258;2024-02-14T15:20:30;11.60;99.90
46898;DHT22;32646;50.958;6.258;2024-02-14T15:22:56;11.70;99.90
46898;DHT22;32646;50.958;6.258;2024-02-14T15:25:23;11.60;99.90
46898;DHT22;32646;50.958;6.258;2024-02-14T15:27:49;11.60;99.90
46898;DHT22;32646;50.958;6.258;2024-02-14T15:30:16;11.60;99.90
46898;DHT22;32646;50.958;6.258;2024-02-14T15:32:43;11.60;99.90
46898;DHT22;32646;50.958;6.258;2024-02-14T15:35:09;11.60;99.90